createdAt,value
2022-11-20T00:01:23.661Z,0.68
2022-11-20T00:03:53.311Z,0.56
2022-11-20T00:06:22.438Z,0.65
2022-11-20T00:08:50.861Z,0.58
2022-11-20T00:11:22.879Z,0.59
2022-11-20T00:13:52.624Z,0.65
2022-11-20T00:16:22.526Z,0.54
2022-11-20T00:18:51.074Z,0.60
2022-11-20T00:21:22.015Z,0.58
2022-11-20T00:23:54.910Z,0.49
2022-11-20T00:26:26.307Z,0.59
2022-11-20T00:28:56.995Z,0.68
2022-11-20T00:31:25.448Z,0.59
2022-11-20T00:33:54.149Z,0.51
2022-11-20T00:36:23.681Z,0.41
2022-11-20T00:38:54.072Z,0.49
2022-11-20T00:41:22.784Z,0.46
2022-11-20T00:43:53.801Z,0.45
2022-11-20T00:46:23.999Z,0.35
2022-11-20T00:48:51.832Z,0.48
2022-11-20T00:51:22.401Z,0.52
2022-11-20T00:53:50.439Z,0.41
2022-11-20T00:56:19.845Z,0.43
2022-11-20T00:58:49.062Z,0.52
2022-11-20T01:01:20.493Z,0.57
2022-11-20T01:03:51.042Z,0.50
2022-11-20T01:06:29.604Z,0.46
2022-11-20T01:08:58.990Z,0.46
2022-11-20T01:11:29.088Z,0.30
2022-11-20T01:13:58.106Z,0.37
2022-11-20T01:16:29.441Z,0.37
2022-11-20T01:18:59.559Z,0.35
2022-11-20T01:21:29.055Z,0.40
2022-11-20T01:23:57.136Z,0.48
2022-11-20T01:26:26.830Z,0.41
2022-11-20T01:28:55.887Z,0.43
2022-11-20T01:31:26.001Z,0.43
2022-11-20T01:34:05.874Z,0.46
2022-11-20T01:36:35.032Z,0.41
2022-11-20T01:39:07.747Z,0.43
2022-11-20T01:41:53.864Z,0.33
2022-11-20T01:44:23.862Z,0.33
2022-11-20T01:46:59.610Z,0.34
2022-11-20T01:49:36.926Z,0.32
2022-11-20T01:52:10.342Z,0.38
2022-11-20T01:54:43.197Z,0.35
2022-11-20T01:57:14.243Z,0.26
2022-11-20T01:59:46.853Z,0.36
2022-11-20T02:02:14.657Z,0.33
2022-11-20T02:04:44.078Z,0.34
2022-11-20T02:07:12.862Z,0.33
2022-11-20T02:09:40.932Z,0.40
2022-11-20T02:12:29.927Z,0.41
2022-11-20T02:14:59.566Z,0.28
2022-11-20T02:17:28.039Z,0.33
2022-11-20T02:19:57.411Z,0.27
2022-11-20T02:22:31.055Z,0.29
2022-11-20T02:25:03.454Z,0.38
2022-11-20T02:27:31.366Z,0.26
2022-11-20T02:30:03.164Z,0.15
2022-11-20T02:32:33.505Z,0.15
2022-11-20T02:35:09.213Z,0.05
2022-11-20T02:37:40.932Z,0.03
2022-11-20T02:40:11.726Z,0.09
2022-11-20T02:42:40.437Z,-0.04
2022-11-20T02:45:09.299Z,0.00
2022-11-20T02:47:37.292Z,-0.01
2022-11-20T02:50:05.964Z,-0.08
2022-11-20T02:52:34.028Z,0.10
2022-11-20T02:55:01.971Z,0.18
2022-11-20T02:57:31.396Z,0.17
2022-11-20T02:59:59.225Z,0.08
2022-11-20T03:02:27.357Z,-0.02
2022-11-20T03:04:55.095Z,0.04
2022-11-20T03:07:23.010Z,0.11
2022-11-20T03:09:53.581Z,0.07
2022-11-20T03:12:21.392Z,0.08
2022-11-20T03:14:53.514Z,0.14
2022-11-20T03:17:21.568Z,0.18
2022-11-20T03:19:49.357Z,0.28
2022-11-20T03:22:17.145Z,0.30
2022-11-20T03:24:45.556Z,0.25
2022-11-20T03:27:13.366Z,0.21
2022-11-20T03:29:41.159Z,0.14
2022-11-20T03:32:10.302Z,0.10
2022-11-20T03:34:38.112Z,0.07
2022-11-20T03:37:06.058Z,0.16
2022-11-20T03:39:34.150Z,0.07
2022-11-20T03:42:01.946Z,0.09
2022-11-20T03:44:29.802Z,0.12
2022-11-20T03:46:57.625Z,0.02
2022-11-20T03:49:26.833Z,0.09
2022-11-20T03:51:55.062Z,-0.01
2022-11-20T03:54:23.222Z,0.03
2022-11-20T03:56:51.021Z,0.10
2022-11-20T03:59:19.209Z,0.18
2022-11-20T04:01:49.605Z,0.24
2022-11-20T04:04:17.625Z,0.18
2022-11-20T04:06:47.317Z,0.11
2022-11-20T04:09:15.195Z,0.05
2022-11-20T04:11:43.166Z,0.03
2022-11-20T04:14:16.546Z,0.07
2022-11-20T04:16:44.989Z,-0.02
2022-11-20T04:19:14.530Z,-0.02
2022-11-20T04:21:42.813Z,-0.01
2022-11-20T04:24:12.290Z,-0.03
2022-11-20T04:26:40.347Z,-0.08
2022-11-20T04:29:08.823Z,-0.11
2022-11-20T04:31:38.781Z,-0.12
2022-11-20T04:34:09.993Z,-0.04
2022-11-20T04:36:37.771Z,0.00
2022-11-20T04:39:08.213Z,-0.06
2022-11-20T04:41:38.780Z,0.07
2022-11-20T04:44:08.384Z,0.03
2022-11-20T04:46:38.112Z,0.05
2022-11-20T04:49:06.591Z,0.03
2022-11-20T04:51:35.010Z,-0.04
2022-11-20T04:54:03.393Z,-0.09
2022-11-20T04:56:31.266Z,-0.12
2022-11-20T04:59:03.950Z,-0.21
2022-11-20T05:01:32.076Z,-0.17
2022-11-20T05:04:00.064Z,-0.18
2022-11-20T05:06:27.900Z,-0.20
2022-11-20T05:08:56.069Z,-0.21
2022-11-20T05:11:24.079Z,-0.25
2022-11-20T05:13:53.354Z,-0.14
2022-11-20T05:16:24.534Z,-0.17
2022-11-20T05:18:53.710Z,-0.21
2022-11-20T05:21:22.045Z,-0.25
2022-11-20T05:23:51.405Z,-0.26
2022-11-20T05:26:22.236Z,-0.31
2022-11-20T05:28:50.080Z,-0.31
2022-11-20T05:31:26.230Z,-0.22
2022-11-20T05:33:57.871Z,-0.23
2022-11-20T05:36:26.093Z,-0.21
2022-11-20T05:38:59.686Z,-0.26
2022-11-20T05:41:29.107Z,-0.20
2022-11-20T05:43:58.565Z,-0.24
2022-11-20T05:46:28.946Z,-0.16
2022-11-20T05:49:00.194Z,-0.17
2022-11-20T05:51:28.592Z,-0.18
2022-11-20T05:53:58.460Z,-0.16
2022-11-20T05:56:26.372Z,-0.12
2022-11-20T05:58:54.214Z,-0.07
2022-11-20T06:01:23.733Z,-0.16
2022-11-20T06:03:52.753Z,-0.11
2022-11-20T06:06:22.061Z,-0.06
2022-11-20T06:08:50.493Z,-0.04
2022-11-20T06:11:19.159Z,-0.18
2022-11-20T06:13:47.470Z,-0.18
2022-11-20T06:16:17.113Z,-0.19
2022-11-20T06:18:45.218Z,-0.11
2022-11-20T06:21:14.758Z,-0.09
2022-11-20T06:23:44.770Z,-0.09
2022-11-20T06:26:16.592Z,0.01
2022-11-20T06:28:44.488Z,0.12
2022-11-20T06:31:14.289Z,0.12
2022-11-20T06:33:42.337Z,0.06
2022-11-20T06:36:12.348Z,0.04
2022-11-20T06:38:40.902Z,-0.06
2022-11-20T06:41:13.759Z,-0.07
2022-11-20T06:43:42.061Z,0.03
2022-11-20T06:46:12.434Z,-0.02
2022-11-20T06:48:40.420Z,-0.07
2022-11-20T06:51:10.292Z,0.00
2022-11-20T06:53:38.684Z,0.07
2022-11-20T06:56:07.269Z,0.14
2022-11-20T06:58:37.449Z,0.13
2022-11-20T07:01:07.491Z,0.28
2022-11-20T07:03:35.479Z,0.35
2022-11-20T07:06:04.591Z,0.39
2022-11-20T07:08:32.658Z,0.35
2022-11-20T07:11:01.704Z,0.30
2022-11-20T07:13:30.040Z,0.21
2022-11-20T07:16:02.088Z,0.29
2022-11-20T07:18:29.966Z,0.29
2022-11-20T07:20:57.836Z,0.28
2022-11-20T07:23:25.617Z,0.32
2022-11-20T07:25:53.339Z,0.45
2022-11-20T07:28:21.188Z,0.43
2022-11-20T07:30:52.741Z,0.41
2022-11-20T07:33:22.341Z,0.54
2022-11-20T07:35:50.185Z,0.46
2022-11-20T07:38:17.984Z,0.56
2022-11-20T07:40:45.997Z,0.55
2022-11-20T07:43:13.792Z,0.67
2022-11-20T07:45:41.579Z,0.67
2022-11-20T07:48:09.482Z,0.80
2022-11-20T07:50:38.563Z,0.78
2022-11-20T07:53:07.232Z,0.79
2022-11-20T07:55:35.380Z,0.88
2022-11-20T07:58:03.402Z,0.95
2022-11-20T08:00:31.500Z,1.00
2022-11-20T08:02:59.613Z,1.09
2022-11-20T08:05:27.423Z,1.06
2022-11-20T08:07:56.552Z,1.18
2022-11-20T08:10:24.366Z,1.16
2022-11-20T08:13:11.230Z,1.21
2022-11-20T08:15:40.654Z,1.13
2022-11-20T08:20:57.927Z,1.25
2022-11-20T08:23:27.299Z,1.30
2022-11-20T08:25:55.424Z,1.29
2022-11-20T08:28:23.238Z,1.35
2022-11-20T08:30:51.643Z,1.41
2022-11-20T08:33:20.196Z,1.43
2022-11-20T08:35:48.183Z,1.38
2022-11-20T08:38:15.884Z,1.19
2022-11-20T08:41:06.299Z,1.28
2022-11-20T08:43:34.446Z,1.23
2022-11-20T08:46:02.322Z,1.20
2022-11-20T08:48:30.379Z,1.38
2022-11-20T08:51:00.667Z,1.45
2022-11-20T08:53:28.506Z,1.43
2022-11-20T08:55:59.298Z,1.29
2022-11-20T08:58:27.321Z,1.55
2022-11-20T09:00:55.454Z,1.61
2022-11-20T09:03:23.351Z,1.83
2022-11-20T09:05:52.011Z,2.14
2022-11-20T09:08:19.774Z,2.32
2022-11-20T09:10:47.601Z,2.43
2022-11-20T09:13:16.711Z,2.33
2022-11-20T09:15:44.402Z,2.34
2022-11-20T09:18:12.293Z,2.48
2022-11-20T09:20:40.130Z,2.53
2022-11-20T09:23:07.924Z,2.47
2022-11-20T09:25:35.740Z,2.68
2022-11-20T09:28:03.476Z,2.48
2022-11-20T09:30:32.826Z,2.53
2022-11-20T09:33:00.612Z,2.47
2022-11-20T09:35:28.780Z,2.41
2022-11-20T09:37:56.528Z,2.16
2022-11-20T09:40:27.714Z,2.35
2022-11-20T09:43:00.572Z,2.38
2022-11-20T09:45:44.707Z,2.21
2022-11-20T09:48:26.960Z,2.49
2022-11-20T09:51:00.985Z,2.53
2022-11-20T09:53:38.301Z,2.48
2022-11-20T09:56:06.793Z,2.44
2022-11-20T09:58:38.001Z,2.36
2022-11-20T10:01:13.580Z,2.46
2022-11-20T10:03:51.564Z,2.50
2022-11-20T10:06:23.791Z,2.53
2022-11-20T10:09:02.107Z,2.50
2022-11-20T10:11:41.911Z,2.48
2022-11-20T10:14:25.847Z,2.45
2022-11-20T10:17:04.604Z,2.46
2022-11-20T10:19:47.384Z,2.40
2022-11-20T10:22:30.252Z,2.36
2022-11-20T10:25:02.497Z,2.17
2022-11-20T10:27:46.309Z,2.02
2022-11-20T10:30:17.112Z,2.10
2022-11-20T10:32:49.710Z,1.94
2022-11-20T10:35:23.966Z,1.92
2022-11-20T10:37:57.644Z,1.99
2022-11-20T10:40:33.613Z,1.96
2022-11-20T10:43:05.030Z,1.73
2022-11-20T10:45:41.447Z,1.64
2022-11-20T10:48:18.609Z,1.66
2022-11-20T10:51:09.598Z,6.66
2022-11-20T10:53:51.660Z,10.23
2022-11-20T10:56:22.843Z,6.35
2022-11-20T10:59:04.451Z,4.40
2022-11-20T11:01:32.546Z,3.57
2022-11-20T11:04:01.812Z,2.97
2022-11-20T11:06:37.988Z,2.73
2022-11-20T11:09:15.091Z,2.47
2022-11-20T11:11:42.979Z,2.39
2022-11-20T11:14:13.649Z,2.23
2022-11-20T11:16:51.722Z,2.25
2022-11-20T11:19:21.194Z,2.37
2022-11-20T11:21:55.148Z,2.29
2022-11-20T11:24:42.714Z,2.42
2022-11-20T11:27:17.662Z,2.37
2022-11-20T11:29:48.113Z,2.56
2022-11-20T11:32:19.766Z,2.43
2022-11-20T11:35:01.408Z,2.37
2022-11-20T11:37:34.767Z,2.37
2022-11-20T11:42:56.953Z,2.48
2022-11-20T11:45:24.903Z,2.69
2022-11-20T11:47:54.540Z,2.61
2022-11-20T11:50:25.660Z,2.54
2022-11-20T11:53:06.024Z,2.56
2022-11-20T11:55:38.476Z,2.38
2022-11-20T11:58:18.249Z,2.37
2022-11-20T12:00:56.584Z,2.18
2022-11-20T12:03:29.620Z,2.20
2022-11-20T12:06:01.758Z,2.12
2022-11-20T12:08:33.923Z,2.34
2022-11-20T12:11:07.696Z,2.33
2022-11-20T12:13:50.510Z,2.18
2022-11-20T12:16:21.080Z,2.21
2022-11-20T12:18:52.138Z,2.28
2022-11-20T12:21:26.625Z,2.31
2022-11-20T12:24:11.654Z,2.16
2022-11-20T12:26:58.221Z,2.24
2022-11-20T12:29:39.483Z,2.14
2022-11-20T12:32:53.603Z,2.08
2022-11-20T12:35:38.672Z,2.16
2022-11-20T12:38:33.891Z,2.26
2022-11-20T12:41:11.132Z,2.30
2022-11-20T12:44:05.403Z,2.45
2022-11-20T12:46:41.504Z,2.45
2022-11-20T12:49:32.925Z,2.59
2022-11-20T12:52:25.669Z,2.87
2022-11-20T12:55:13.620Z,2.89
2022-11-20T12:57:51.367Z,2.85
2022-11-20T13:00:21.600Z,2.91
2022-11-20T13:03:35.641Z,2.86
2022-11-20T13:06:13.607Z,2.67
2022-11-20T13:08:42.895Z,2.70
2022-11-20T13:11:20.530Z,2.59
2022-11-20T13:14:06.614Z,2.41
2022-11-20T13:16:39.570Z,2.43
2022-11-20T13:19:12.294Z,2.43
2022-11-20T13:21:42.001Z,2.36
2022-11-20T13:24:24.648Z,2.16
2022-11-20T13:27:19.079Z,2.25
2022-11-20T13:30:00.631Z,2.08
2022-11-20T13:32:32.921Z,1.97
2022-11-20T13:35:02.601Z,1.99
2022-11-20T13:37:33.556Z,2.14
2022-11-20T13:40:15.059Z,2.16
2022-11-20T13:42:47.696Z,2.14
2022-11-20T13:45:25.166Z,2.17
2022-11-20T13:47:53.905Z,2.14
2022-11-20T13:50:31.503Z,2.06
2022-11-20T13:53:09.678Z,2.08
2022-11-20T13:55:44.356Z,1.97
2022-11-20T13:58:32.944Z,1.76
2022-11-20T14:01:13.326Z,1.78
2022-11-20T14:04:05.161Z,1.80
2022-11-20T14:06:32.585Z,1.72
2022-11-20T14:09:01.533Z,1.62
2022-11-20T14:11:31.408Z,1.81
2022-11-20T14:14:03.942Z,1.77
2022-11-20T14:16:34.539Z,1.73
2022-11-20T14:19:27.980Z,1.80
2022-11-20T14:22:07.988Z,1.69
2022-11-20T14:24:35.889Z,1.64
2022-11-20T14:27:04.070Z,1.56
2022-11-20T14:29:45.478Z,1.68
2022-11-20T14:32:16.569Z,1.52
2022-11-20T14:34:52.727Z,1.50
2022-11-20T14:37:23.666Z,1.59
2022-11-20T14:39:53.862Z,1.55
2022-11-20T14:42:23.677Z,1.59
2022-11-20T14:44:54.961Z,1.60
2022-11-20T14:47:25.673Z,1.66
2022-11-20T14:49:55.745Z,1.67
2022-11-20T14:52:24.979Z,1.72
2022-11-20T14:54:54.161Z,1.70
2022-11-20T14:57:26.331Z,1.62
2022-11-20T15:00:06.989Z,1.54
2022-11-20T15:02:34.916Z,1.57
2022-11-20T15:05:05.158Z,1.49
2022-11-20T15:07:36.265Z,1.57
2022-11-20T15:10:06.002Z,1.53
2022-11-20T15:12:34.988Z,1.42
2022-11-20T15:15:06.155Z,1.39
2022-11-20T15:17:36.922Z,1.48
2022-11-20T15:20:10.812Z,1.53
2022-11-20T15:22:38.559Z,1.55
2022-11-20T15:25:13.967Z,1.57
2022-11-20T15:27:41.916Z,1.49
2022-11-20T15:30:17.811Z,1.32
2022-11-20T15:32:46.993Z,1.41
2022-11-20T15:35:15.319Z,1.41
2022-11-20T15:37:43.876Z,1.45
2022-11-20T15:40:12.319Z,1.28
2022-11-20T15:43:00.093Z,1.23
2022-11-20T15:45:31.831Z,1.38
2022-11-20T15:47:59.749Z,1.38
2022-11-20T15:50:32.227Z,1.29
2022-11-20T15:53:00.093Z,1.42
2022-11-20T15:55:28.577Z,1.36
2022-11-20T15:57:56.847Z,1.36
2022-11-20T16:00:24.677Z,1.40
2022-11-20T16:02:53.860Z,1.39
2022-11-20T16:05:24.001Z,1.49
2022-11-20T16:07:52.853Z,1.35
2022-11-20T16:10:20.978Z,1.35
2022-11-20T16:13:06.210Z,1.25
2022-11-20T16:15:49.120Z,1.28
2022-11-20T16:18:20.792Z,1.27
2022-11-20T16:20:51.133Z,1.23
2022-11-20T16:23:19.770Z,1.17
2022-11-20T16:25:47.811Z,1.17
2022-11-20T16:28:18.914Z,1.19
2022-11-20T16:30:47.945Z,1.07
2022-11-20T16:33:19.042Z,1.16
2022-11-20T16:35:46.905Z,1.10
2022-11-20T16:38:14.835Z,1.08
2022-11-20T16:40:42.769Z,1.14
2022-11-20T16:43:12.207Z,1.12
2022-11-20T16:45:43.778Z,1.11
2022-11-20T16:48:16.012Z,1.18
2022-11-20T16:50:50.058Z,1.19
2022-11-20T16:53:18.248Z,1.19
2022-11-20T16:55:46.435Z,1.02
2022-11-20T16:58:14.923Z,0.99
2022-11-20T17:00:48.313Z,1.09
2022-11-20T17:03:21.156Z,1.04
2022-11-20T17:05:50.359Z,1.00
2022-11-20T17:08:18.217Z,1.14
2022-11-20T17:10:46.198Z,1.04
2022-11-20T17:13:14.019Z,0.92
2022-11-20T17:15:41.858Z,1.07
2022-11-20T17:18:10.087Z,1.14
2022-11-20T17:20:37.983Z,1.02
2022-11-20T17:23:07.130Z,0.90
2022-11-20T17:25:35.344Z,0.81
2022-11-20T17:28:03.508Z,0.85
2022-11-20T17:30:31.745Z,0.81
2022-11-20T17:32:59.747Z,0.88
2022-11-20T17:35:27.837Z,0.85
2022-11-20T17:37:55.667Z,0.92
2022-11-20T17:40:27.675Z,0.90
2022-11-20T17:42:55.989Z,0.95
2022-11-20T17:45:23.797Z,0.87
2022-11-20T17:47:52.114Z,0.95
2022-11-20T17:50:19.961Z,0.98
2022-11-20T17:52:47.797Z,0.97
2022-11-20T17:55:15.745Z,0.94
2022-11-20T17:57:52.764Z,0.83
2022-11-20T18:00:22.211Z,0.87
2022-11-20T18:02:50.248Z,0.85
2022-11-20T18:05:18.209Z,0.95
2022-11-20T18:07:46.109Z,0.91
2022-11-20T18:10:14.154Z,0.91
2022-11-20T18:12:41.962Z,0.85
2022-11-20T18:15:11.812Z,0.71
2022-11-20T18:17:39.535Z,0.77
2022-11-20T18:22:57.106Z,0.87
2022-11-20T18:25:25.020Z,0.78
2022-11-20T18:27:52.861Z,0.75
2022-11-20T18:30:22.178Z,0.87
2022-11-20T18:32:50.142Z,0.93
2022-11-20T18:35:18.148Z,0.89
2022-11-20T18:37:46.359Z,0.87
2022-11-20T18:40:14.924Z,0.77
2022-11-20T18:43:00.140Z,0.71
2022-11-20T18:45:30.383Z,0.75
2022-11-20T18:47:58.243Z,0.67
2022-11-20T18:50:26.169Z,0.77
2022-11-20T18:52:54.033Z,0.79
2022-11-20T18:55:24.999Z,0.79
2022-11-20T18:57:54.055Z,0.85
2022-11-20T19:00:21.911Z,0.76
2022-11-20T19:02:54.505Z,0.68
2022-11-20T19:05:22.840Z,0.51
2022-11-20T19:07:50.996Z,0.56
2022-11-20T19:10:20.285Z,0.65
2022-11-20T19:12:48.327Z,0.68
2022-11-20T19:15:16.311Z,0.69
2022-11-20T19:17:44.143Z,0.66
2022-11-20T19:20:13.941Z,0.59
2022-11-20T19:22:41.776Z,0.53
2022-11-20T19:25:10.264Z,0.46
2022-11-20T19:27:38.411Z,0.40
2022-11-20T19:30:07.065Z,0.36
2022-11-20T19:36:18.352Z,0.47
2022-11-20T19:42:08.952Z,0.37
2022-11-20T19:45:19.324Z,0.35
2022-11-20T19:48:16.124Z,0.38
2022-11-20T19:51:11.642Z,0.29
2022-11-20T19:54:45.393Z,0.20
2022-11-20T19:58:07.257Z,0.15
2022-11-20T20:01:06.285Z,0.20
2022-11-20T20:04:02.798Z,0.15
2022-11-20T20:06:47.084Z,0.14
2022-11-20T20:09:34.044Z,0.10
2022-11-20T20:12:01.878Z,0.04
2022-11-20T20:14:31.934Z,0.02
2022-11-20T20:16:59.600Z,-0.07
2022-11-20T20:19:27.589Z,-0.14
2022-11-20T20:21:55.904Z,-0.14
2022-11-20T20:24:23.689Z,-0.17
2022-11-20T20:26:54.328Z,-0.12
2022-11-20T20:29:26.031Z,-0.16
2022-11-20T20:31:55.760Z,-0.14
2022-11-20T20:34:24.337Z,-0.10
2022-11-20T20:36:52.040Z,-0.10
2022-11-20T20:39:19.959Z,-0.18
2022-11-20T20:41:47.751Z,-0.23
2022-11-20T20:44:33.512Z,-0.28
2022-11-20T20:47:02.884Z,-0.28
2022-11-20T20:49:30.615Z,-0.39
2022-11-20T20:52:07.573Z,-0.39
2022-11-20T20:54:35.311Z,-0.34
2022-11-20T20:57:03.116Z,-0.36
2022-11-20T20:59:30.944Z,-0.40
2022-11-20T21:01:58.801Z,-0.46
2022-11-20T21:04:28.508Z,-0.38
2022-11-20T21:06:56.288Z,-0.50
2022-11-20T21:09:24.199Z,-0.58
2022-11-20T21:11:52.054Z,-0.58
2022-11-20T21:14:20.011Z,-0.69
2022-11-20T21:16:47.905Z,-0.84
2022-11-20T21:19:16.233Z,-0.93
2022-11-20T21:21:59.418Z,-1.00
2022-11-20T21:24:28.304Z,-1.04
2022-11-20T21:26:57.103Z,-1.07
2022-11-20T21:29:26.428Z,-1.14
2022-11-20T21:31:54.412Z,-1.15
2022-11-20T21:34:23.547Z,-1.27
2022-11-20T21:36:53.513Z,-1.33
2022-11-20T21:39:25.110Z,-1.44
2022-11-20T21:41:52.907Z,-1.43
2022-11-20T21:44:36.108Z,-1.38
2022-11-20T21:47:04.030Z,-1.37
2022-11-20T21:49:31.701Z,-1.34
2022-11-20T21:52:00.952Z,-1.27
2022-11-20T21:54:28.909Z,-1.21
2022-11-20T21:56:56.882Z,-1.22
2022-11-20T21:59:24.901Z,-1.20
2022-11-20T22:01:52.658Z,-1.19
2022-11-20T22:04:24.563Z,-1.17
2022-11-20T22:06:53.635Z,-1.19
2022-11-20T22:09:32.437Z,-1.24
2022-11-20T22:12:00.794Z,-1.32
2022-11-20T22:14:31.202Z,-1.22
2022-11-20T22:17:06.054Z,-1.30
2022-11-20T22:19:34.163Z,-1.21
2022-11-20T22:22:02.112Z,-1.19
2022-11-20T22:24:31.792Z,-1.16
2022-11-20T22:27:02.687Z,-1.16
2022-11-20T22:29:31.211Z,-1.19
2022-11-20T22:31:59.014Z,-1.12
2022-11-20T22:34:27.064Z,-1.11
2022-11-20T22:36:54.960Z,-1.11
2022-11-20T22:39:23.037Z,-1.20
2022-11-20T22:41:52.268Z,-1.10
2022-11-20T22:44:19.987Z,-1.08
2022-11-20T22:46:47.827Z,-1.08
2022-11-20T22:49:16.105Z,-1.07
2022-11-20T22:51:43.962Z,-1.09
2022-11-20T22:54:13.304Z,-1.15
2022-11-20T22:56:41.187Z,-1.20
2022-11-20T22:59:10.655Z,-1.25
2022-11-20T23:01:38.791Z,-1.26
2022-11-20T23:04:08.538Z,-1.26
2022-11-20T23:06:36.419Z,-1.23
2022-11-20T23:09:04.656Z,-1.20
2022-11-20T23:11:33.189Z,-1.17
2022-11-20T23:14:02.336Z,-1.17
2022-11-20T23:16:33.319Z,-1.18
2022-11-20T23:19:02.656Z,-1.30
2022-11-20T23:21:30.369Z,-1.31
2022-11-20T23:24:00.036Z,-1.32
2022-11-20T23:26:30.929Z,-1.32
2022-11-20T23:28:59.957Z,-1.39
2022-11-20T23:31:29.814Z,-1.47
2022-11-20T23:34:00.229Z,-1.47
2022-11-20T23:36:27.973Z,-1.54
2022-11-20T23:38:55.796Z,-1.62
2022-11-20T23:41:23.554Z,-1.69
2022-11-20T23:43:51.593Z,-1.76
2022-11-20T23:46:19.392Z,-2.01
2022-11-20T23:48:47.097Z,-2.05
2022-11-20T23:51:16.650Z,-2.07
2022-11-20T23:53:44.477Z,-2.18
2022-11-20T23:56:14.267Z,-2.17
2022-11-20T23:58:42.633Z,-2.21
